createdAt,value
2016-07-27T00:00:22.755Z,958.20
2016-07-27T18:18:19.132Z,956.27
2016-07-27T18:18:26.059Z,956.29
2016-07-27T18:19:23.727Z,956.29
2016-07-27T18:20:23.888Z,956.33
2016-07-27T18:21:23.310Z,956.24
2016-07-27T18:22:29.644Z,956.28
2016-07-27T18:23:33.736Z,956.26
2016-07-27T18:25:29.073Z,956.35
2016-07-27T18:26:26.697Z,956.36
2016-07-27T18:27:17.845Z,956.44
2016-07-27T18:28:30.188Z,956.48
2016-07-27T18:29:31.431Z,956.46
2016-07-27T18:30:23.972Z,956.39
2016-07-27T18:31:23.094Z,956.37
2016-07-27T18:32:23.738Z,956.37
2016-07-27T18:33:12.698Z,956.36
2016-07-27T18:34:23.009Z,956.32
2016-07-27T18:35:17.335Z,956.31
2016-07-27T18:36:22.361Z,956.33
2016-07-27T18:37:34.037Z,956.40
2016-07-27T18:38:27.500Z,956.55
2016-07-27T18:39:38.558Z,956.61
2016-07-27T18:41:34.020Z,956.86
2016-07-27T18:42:30.245Z,956.85
2016-07-27T18:44:24.070Z,956.72
2016-07-27T18:45:24.699Z,956.66
2016-07-27T18:46:28.165Z,956.76
2016-07-27T18:47:29.328Z,956.68
2016-07-27T18:48:17.661Z,956.61
2016-07-27T18:49:29.073Z,956.61
2016-07-27T18:50:33.722Z,956.56
2016-07-27T18:51:23.598Z,956.61
2016-07-27T18:52:31.607Z,956.65
2016-07-27T18:53:24.792Z,956.65
2016-07-27T18:54:42.843Z,956.68
2016-07-27T18:55:19.740Z,956.55
2016-07-27T18:56:33.228Z,956.52
2016-07-27T18:58:18.363Z,956.51
2016-07-27T19:00:47.981Z,956.47
2016-07-27T19:01:24.526Z,956.46
2016-07-27T19:02:28.852Z,956.41
2016-07-27T19:03:17.491Z,956.43
2016-07-27T19:04:26.706Z,956.52
2016-07-27T19:05:25.361Z,956.50
2016-07-27T19:06:32.853Z,956.55
2016-07-27T19:07:22.874Z,956.51
2016-07-27T19:08:18.840Z,956.57
2016-07-27T19:09:38.824Z,956.62
2016-07-27T19:11:18.625Z,956.55
2016-07-27T19:12:34.613Z,956.71
2016-07-27T19:14:26.046Z,956.60
2016-07-27T19:16:18.994Z,956.62
2016-07-27T19:17:28.938Z,956.58
2016-07-27T19:18:29.154Z,956.71
2016-07-27T19:19:24.928Z,956.72
2016-07-27T19:20:29.822Z,956.66
2016-07-27T19:21:18.410Z,956.73
2016-07-27T19:22:42.340Z,956.71
2016-07-27T19:23:29.601Z,956.70
2016-07-27T19:24:28.546Z,956.68
2016-07-27T19:25:52.900Z,956.73
2016-07-27T19:26:39.180Z,956.76
2016-07-27T19:28:12.043Z,956.80
2016-07-27T19:29:32.789Z,956.77
2016-07-27T19:30:24.327Z,956.82
2016-07-27T19:31:17.148Z,956.87
2016-07-27T19:32:17.665Z,956.88
2016-07-27T19:34:25.894Z,956.94
2016-07-27T19:35:24.853Z,956.97
2016-07-27T19:36:25.322Z,956.96
2016-07-27T19:37:30.154Z,957.02
2016-07-27T19:38:18.533Z,957.03
2016-07-27T19:39:25.286Z,957.01
2016-07-27T19:40:21.042Z,957.04
2016-07-27T19:41:17.355Z,957.07
2016-07-27T19:42:19.182Z,957.03
2016-07-27T19:43:22.553Z,957.06
2016-07-27T19:44:17.776Z,957.11
2016-07-27T19:45:22.230Z,957.12
2016-07-27T19:46:24.322Z,957.11
2016-07-27T19:47:20.741Z,957.14
2016-07-27T19:48:17.926Z,957.20
2016-07-27T19:49:23.227Z,957.23
2016-07-27T19:50:17.414Z,957.22
2016-07-27T19:51:42.146Z,957.25
2016-07-27T19:52:24.717Z,957.26
2016-07-27T19:53:35.565Z,957.26
2016-07-27T19:56:02.353Z,957.27
2016-07-27T19:56:24.115Z,957.28
2016-07-27T19:57:18.216Z,957.21
2016-07-27T19:58:18.732Z,957.29
2016-07-27T19:59:27.069Z,957.31
2016-07-27T20:00:25.122Z,957.35
2016-07-27T20:01:39.367Z,957.38
2016-07-27T20:02:25.269Z,957.43
2016-07-27T20:03:26.518Z,957.46
2016-07-27T20:04:25.466Z,957.49
2016-07-27T20:05:53.794Z,957.49
2016-07-27T20:06:25.025Z,957.50
2016-07-27T20:07:27.273Z,957.51
2016-07-27T20:08:23.216Z,957.50
2016-07-27T20:09:19.715Z,957.51
2016-07-27T20:10:22.828Z,957.53
2016-07-27T20:11:18.382Z,957.57
2016-07-27T20:12:32.403Z,957.56
2016-07-27T20:13:25.381Z,957.63
2016-07-27T20:14:18.613Z,957.61
2016-07-27T20:15:24.661Z,957.66
2016-07-27T20:16:23.438Z,957.66
2016-07-27T20:17:17.502Z,957.64
2016-07-27T20:18:17.668Z,957.67
2016-07-27T20:19:30.428Z,957.73
2016-07-27T20:20:22.754Z,957.71
2016-07-27T20:21:22.035Z,957.77
2016-07-27T20:22:18.416Z,957.75
2016-07-27T20:23:20.805Z,957.77
2016-07-27T20:24:28.978Z,957.83
2016-07-27T20:25:25.685Z,957.78
2016-07-27T20:26:17.447Z,957.79
2016-07-27T20:27:20.731Z,957.76
2016-07-27T20:28:33.465Z,957.78
2016-07-27T20:29:30.429Z,957.71
2016-07-27T20:30:18.802Z,957.59
2016-07-27T20:31:37.960Z,957.54
2016-07-27T20:32:27.872Z,957.47
2016-07-27T20:33:17.616Z,957.43
2016-07-27T20:34:24.843Z,957.43
2016-07-27T20:35:24.293Z,957.41
2016-07-27T20:36:18.469Z,957.41
2016-07-27T20:37:28.407Z,957.41
2016-07-27T20:38:23.005Z,957.44
2016-07-27T20:39:23.675Z,957.39
2016-07-27T20:40:23.947Z,957.43
2016-07-27T20:41:39.539Z,957.41
2016-07-27T20:42:35.933Z,957.43
2016-07-27T20:43:21.175Z,957.44
2016-07-27T20:44:30.280Z,957.45
2016-07-27T20:45:23.042Z,957.51
2016-07-27T20:46:17.991Z,957.56
2016-07-27T20:47:17.000Z,957.60
2016-07-27T20:48:28.978Z,957.65
2016-07-27T20:49:18.479Z,957.63
2016-07-27T20:50:38.341Z,957.58
2016-07-27T20:51:12.188Z,957.56
2016-07-27T20:52:23.757Z,957.52
2016-07-27T20:53:23.283Z,957.54
2016-07-27T20:54:25.529Z,957.50
2016-07-27T20:55:18.629Z,957.52
2016-07-27T20:56:24.339Z,957.55
2016-07-27T20:57:23.314Z,957.55
2016-07-27T20:58:23.463Z,957.63
2016-07-27T20:59:28.964Z,957.64
2016-07-27T21:00:23.535Z,957.70
2016-07-27T21:01:22.705Z,957.67
2016-07-27T21:02:16.928Z,957.67
2016-07-27T21:03:28.732Z,957.69
2016-07-27T21:04:33.767Z,957.70
2016-07-27T21:05:28.351Z,957.69
2016-07-27T21:06:24.807Z,957.67
2016-07-27T21:07:17.303Z,957.69
2016-07-27T21:08:18.042Z,957.68
2016-07-27T21:09:18.692Z,957.73
2016-07-27T21:10:36.189Z,957.70
2016-07-27T21:11:23.383Z,957.71
2016-07-27T21:12:23.160Z,957.75
2016-07-27T21:13:29.736Z,957.69
2016-07-27T21:14:23.937Z,957.67
2016-07-27T21:15:25.281Z,957.65
2016-07-27T21:16:18.278Z,957.70
2016-07-27T21:17:28.551Z,957.68
2016-07-27T21:18:18.309Z,957.70
2016-07-27T21:19:27.158Z,957.72
2016-07-27T21:20:39.439Z,957.71
2016-07-27T21:21:23.165Z,957.73
2016-07-27T21:22:26.628Z,957.75
2016-07-27T21:23:18.254Z,957.70
2016-07-27T21:24:17.854Z,957.66
2016-07-27T21:25:18.398Z,957.63
2016-07-27T21:26:30.305Z,957.67
2016-07-27T21:27:17.937Z,957.65
2016-07-27T21:28:28.972Z,957.66
2016-07-27T21:29:17.587Z,957.63
2016-07-27T21:30:17.504Z,957.63
2016-07-27T21:31:23.053Z,957.64
2016-07-27T21:32:12.517Z,957.64
2016-07-27T21:33:13.442Z,957.65
2016-07-27T21:34:23.155Z,957.66
2016-07-27T21:35:22.982Z,957.67
2016-07-27T21:36:29.720Z,957.64
2016-07-27T21:37:29.836Z,957.61
2016-07-27T21:38:12.215Z,957.62
2016-07-27T21:39:29.370Z,957.63
2016-07-27T21:40:18.400Z,957.60
2016-07-27T21:41:18.852Z,957.57
2016-07-27T21:42:23.380Z,957.56
2016-07-27T21:43:18.374Z,957.54
2016-07-27T21:44:25.656Z,957.54
2016-07-27T21:45:24.276Z,957.54
2016-07-27T21:46:17.886Z,957.50
2016-07-27T21:48:17.159Z,957.52
2016-07-27T21:48:23.058Z,957.52
2016-07-27T21:49:29.356Z,957.53
2016-07-27T21:50:17.359Z,957.53
2016-07-27T21:51:23.096Z,957.53
2016-07-27T21:52:17.359Z,957.55
2016-07-27T21:53:28.933Z,957.50
2016-07-27T21:54:17.327Z,957.47
2016-07-27T21:55:17.717Z,957.45
2016-07-27T21:56:17.899Z,957.53
2016-07-27T21:57:18.701Z,957.45
2016-07-27T21:58:22.344Z,957.54
2016-07-27T21:59:16.995Z,957.55
2016-07-27T22:00:24.034Z,957.51
2016-07-27T22:01:35.160Z,957.48
2016-07-27T22:02:17.883Z,957.50
2016-07-27T22:03:24.972Z,957.53
2016-07-27T22:04:23.710Z,957.58
2016-07-27T22:05:22.463Z,957.57
2016-07-27T22:06:25.405Z,957.64
2016-07-27T22:07:24.588Z,957.65
2016-07-27T22:08:22.946Z,957.69
2016-07-27T22:09:16.918Z,957.71
2016-07-27T22:10:24.825Z,957.71
2016-07-27T22:11:25.220Z,957.69
2016-07-27T22:12:18.382Z,957.67
2016-07-27T22:13:18.212Z,957.67
2016-07-27T22:14:16.912Z,957.68
2016-07-27T22:15:23.434Z,957.71
2016-07-27T22:16:22.606Z,957.69
2016-07-27T22:17:24.477Z,957.72
2016-07-27T22:18:18.049Z,957.72
2016-07-27T22:19:28.870Z,957.72
2016-07-27T22:20:33.910Z,957.74
2016-07-27T22:21:23.129Z,957.76
2016-07-27T22:22:26.735Z,957.76
2016-07-27T22:23:14.476Z,957.73
2016-07-27T22:24:25.433Z,957.80
2016-07-27T22:25:30.722Z,957.84
2016-07-27T22:26:39.683Z,957.82
2016-07-27T22:27:25.444Z,957.83
2016-07-27T22:28:17.744Z,957.78
2016-07-27T22:29:30.567Z,957.79
2016-07-27T22:30:18.364Z,957.76
2016-07-27T22:31:22.267Z,957.76
2016-07-27T22:32:27.759Z,957.77
2016-07-27T22:34:25.076Z,957.72
2016-07-27T22:35:20.718Z,957.72
2016-07-27T22:36:42.407Z,957.72
2016-07-27T22:37:17.751Z,957.73
2016-07-27T22:38:23.026Z,957.71
2016-07-27T22:39:24.447Z,957.71
2016-07-27T22:40:24.735Z,957.68
2016-07-27T22:41:17.404Z,957.67
2016-07-27T22:42:29.860Z,957.64
2016-07-27T22:43:29.361Z,957.70
2016-07-27T22:44:18.761Z,957.67
2016-07-27T22:45:23.370Z,957.66
2016-07-27T22:46:18.884Z,957.64
2016-07-27T22:47:32.973Z,957.61
2016-07-27T22:48:17.754Z,957.61
2016-07-27T22:49:33.964Z,957.60
2016-07-27T22:50:17.782Z,957.57
2016-07-27T22:51:22.814Z,957.60
2016-07-27T22:52:17.824Z,957.61
2016-07-27T22:53:17.152Z,957.59
2016-07-27T22:54:22.583Z,957.56
2016-07-27T22:55:18.638Z,957.55
2016-07-27T22:56:17.448Z,957.53
2016-07-27T22:57:26.536Z,957.52
2016-07-27T22:58:20.458Z,957.50
2016-07-27T22:59:22.912Z,957.47
2016-07-27T23:00:18.287Z,957.47
2016-07-27T23:01:25.218Z,957.46
2016-07-27T23:02:22.522Z,957.46
2016-07-27T23:03:23.062Z,957.50
2016-07-27T23:04:25.823Z,957.49
2016-07-27T23:05:27.503Z,957.51
2016-07-27T23:06:32.943Z,957.47
2016-07-27T23:08:32.222Z,957.46
2016-07-27T23:09:24.988Z,957.46
2016-07-27T23:10:29.840Z,957.51
2016-07-27T23:11:25.867Z,957.49
2016-07-27T23:12:29.867Z,957.50
2016-07-27T23:13:25.865Z,957.48
2016-07-27T23:14:26.910Z,957.52
2016-07-27T23:15:28.833Z,957.52
2016-07-27T23:16:22.494Z,957.48
2016-07-27T23:17:23.671Z,957.46
2016-07-27T23:18:19.303Z,957.47
2016-07-27T23:20:27.950Z,957.48
2016-07-27T23:21:36.795Z,957.51
2016-07-27T23:22:30.192Z,957.51
2016-07-27T23:23:25.256Z,957.49
2016-07-27T23:24:34.108Z,957.53
2016-07-27T23:25:22.596Z,957.55
2016-07-27T23:26:22.423Z,957.55
2016-07-27T23:27:33.819Z,957.51
2016-07-27T23:28:32.246Z,957.50
2016-07-27T23:29:26.520Z,957.53
2016-07-27T23:31:22.465Z,957.48
2016-07-27T23:32:18.917Z,957.48
2016-07-27T23:33:37.998Z,957.50
2016-07-27T23:34:29.223Z,957.50
2016-07-27T23:35:25.553Z,957.54
2016-07-27T23:36:24.702Z,957.53
2016-07-27T23:37:24.414Z,957.59
2016-07-27T23:38:23.075Z,957.59
2016-07-27T23:39:27.096Z,957.58
2016-07-27T23:40:29.059Z,957.53
2016-07-27T23:41:32.496Z,957.58
2016-07-27T23:43:24.480Z,957.63
2016-07-27T23:44:32.264Z,957.66
2016-07-27T23:45:23.916Z,957.70
2016-07-27T23:46:31.012Z,957.68
2016-07-27T23:47:26.233Z,957.68
2016-07-27T23:48:45.789Z,957.72
2016-07-27T23:49:26.024Z,957.72
2016-07-27T23:50:32.911Z,957.70
2016-07-27T23:52:24.973Z,957.74
2016-07-27T23:53:33.041Z,957.77
2016-07-27T23:54:24.337Z,957.76
2016-07-27T23:55:23.183Z,957.78
2016-07-27T23:56:25.642Z,957.83
2016-07-27T23:57:25.271Z,957.84
2016-07-27T23:58:24.732Z,957.80
2016-07-27T23:59:32.166Z,957.85
